Time;durP1;ratioP1;P1;durP2;ratioP2;P2;SDS_P1;SDS_P2;PMS_P1;PMS_P2;Temp;Humidity;BMP_temperature;BMP_pressure;BME280_temperature;BME280_humidity;BME280_pressure;Samples;Min_cycle;Max_cycle;Signal;HPM_P1;HPM_P2
2022/10/30 00:02:07;;;;;;;29.33;12.77;;;;;;;;;;6281979;22;20043;-92
2022/10/30 00:04:33;;;;;;;31.30;14.15;;;;;;;;;;6283889;22;20027;-93
2022/10/30 00:06:59;;;;;;;28.80;13.27;;;;;;;;;;6282920;22;20007;-93
2022/10/30 00:09:25;;;;;;;27.30;13.05;;;;;;;;;;6282651;22;20011;-93
2022/10/30 00:11:51;;;;;;;28.85;12.57;;;;;;;;;;6282919;22;20003;-94
2022/10/30 00:14:17;;;;;;;31.13;13.70;;;;;;;;;;6282266;22;20487;-94
2022/10/30 00:16:43;;;;;;;26.95;13.20;;;;;;;;;;6282829;22;20428;-91
2022/10/30 00:19:10;;;;;;;24.70;12.60;;;;;;;;;;6282227;22;20061;-93
2022/10/30 00:21:36;;;;;;;27.42;13.10;;;;;;;;;;6282373;22;20074;-92
2022/10/30 00:24:02;;;;;;;21.15;10.80;;;;;;;;;;6282266;22;20003;-93
2022/10/30 00:26:28;;;;;;;21.65;12.23;;;;;;;;;;6282246;22;20015;-94
2022/10/30 00:28:56;;;;;;;26.35;13.02;;;;;;;;;;6282756;22;20062;-93
2022/10/30 00:31:22;;;;;;;20.73;11.13;;;;;;;;;;6281732;22;20045;-93
2022/10/30 00:33:49;;;;;;;17.85;10.48;;;;;;;;;;6282023;22;20057;-92
2022/10/30 00:36:15;;;;;;;19.63;10.88;;;;;;;;;;6282468;22;20310;-93
2022/10/30 00:38:41;;;;;;;18.05;10.45;;;;;;;;;;6282079;22;20006;-93
2022/10/30 00:41:07;;;;;;;20.00;10.60;;;;;;;;;;6282368;22;20321;-91
2022/10/30 00:43:40;;;;;;;17.52;10.65;;;;;;;;;;6283512;22;20386;-93
2022/10/30 00:46:18;;;;;;;21.63;10.93;;;;;;;;;;6282096;22;20093;-94
2022/10/30 00:48:46;;;;;;;17.15;9.40;;;;;;;;;;6282041;22;20003;-93
2022/10/30 00:51:12;;;;;;;18.40;10.23;;;;;;;;;;6282537;22;20022;-93
2022/10/30 00:53:39;;;;;;;24.85;11.10;;;;;;;;;;6282263;22;20093;-92
2022/10/30 00:56:06;;;;;;;23.52;11.70;;;;;;;;;;6281759;22;19999;-93
2022/10/30 00:58:34;;;;;;;21.40;10.95;;;;;;;;;;6282311;22;20003;-93
2022/10/30 01:01:02;;;;;;;21.75;11.00;;;;;;;;;;6282232;22;20448;-93
2022/10/30 01:03:28;;;;;;;21.20;11.57;;;;;;;;;;6281996;22;20062;-92
2022/10/30 01:05:56;;;;;;;23.80;11.95;;;;;;;;;;6281089;22;20018;-93
2022/10/30 01:08:22;;;;;;;22.17;11.15;;;;;;;;;;6281548;22;20008;-93
2022/10/30 01:10:49;;;;;;;25.98;13.18;;;;;;;;;;6283725;22;20019;-90
2022/10/30 01:13:16;;;;;;;26.15;12.07;;;;;;;;;;6283981;22;20004;-92
2022/10/30 01:15:52;;;;;;;24.17;12.45;;;;;;;;;;6283884;22;20082;-93
2022/10/30 01:18:21;;;;;;;23.20;11.18;;;;;;;;;;6283825;22;20004;-92
2022/10/30 01:20:53;;;;;;;32.03;14.02;;;;;;;;;;6284708;22;20038;-93
2022/10/30 01:23:28;;;;;;;23.00;11.63;;;;;;;;;;6284099;22;20006;-95
2022/10/30 01:26:05;;;;;;;24.85;11.75;;;;;;;;;;6283614;22;20007;-94
2022/10/30 01:28:31;;;;;;;33.65;13.57;;;;;;;;;;6311956;22;20006;-92
2022/10/30 01:31:20;;;;;;;33.35;13.85;;;;;;;;;;6283893;22;20061;-93
2022/10/30 01:33:50;;;;;;;25.40;11.18;;;;;;;;;;6227987;22;19999;-93
2022/10/30 01:36:21;;;;;;;22.55;12.18;;;;;;;;;;6283444;22;20003;-92
2022/10/30 01:38:50;;;;;;;25.50;12.35;;;;;;;;;;6283698;22;20003;-90
2022/10/30 01:41:16;;;;;;;18.98;10.75;;;;;;;;;;6283815;22;20007;-92
2022/10/30 01:43:43;;;;;;;24.60;11.77;;;;;;;;;;6283787;22;20097;-94
2022/10/30 01:46:20;;;;;;;20.98;11.55;;;;;;;;;;6283696;22;20011;-93
2022/10/30 01:48:56;;;;;;;21.00;10.88;;;;;;;;;;6283796;22;20405;-92
2022/10/30 01:51:41;;;;;;;23.08;12.32;;;;;;;;;;6283530;22;20013;-93
2022/10/30 01:54:13;;;;;;;27.20;11.40;;;;;;;;;;6283523;22;20007;-91
2022/10/30 01:56:45;;;;;;;23.63;11.45;;;;;;;;;;6283847;22;20416;-92
2022/10/30 01:59:11;;;;;;;27.23;13.60;;;;;;;;;;6283560;22;20068;-93
2022/10/30 02:01:38;;;;;;;31.77;14.05;;;;;;;;;;6282744;22;20029;-94
2022/10/30 02:04:06;;;;;;;28.38;13.10;;;;;;;;;;6284779;22;20027;-94
2022/10/30 02:06:32;;;;;;;25.92;13.77;;;;;;;;;;6283368;22;20019;-92
2022/10/30 02:08:58;;;;;;;31.10;13.88;;;;;;;;;;6283541;22;19999;-94
2022/10/30 02:11:25;;;;;;;28.65;13.95;;;;;;;;;;6283891;22;20010;-92
2022/10/30 02:13:52;;;;;;;29.83;14.02;;;;;;;;;;6283482;22;20021;-93
2022/10/30 02:16:18;;;;;;;31.50;13.15;;;;;;;;;;6283745;22;20038;-93
2022/10/30 02:18:44;;;;;;;30.58;12.88;;;;;;;;;;6285021;22;20000;-90
2022/10/30 02:21:11;;;;;;;26.67;13.57;;;;;;;;;;6282875;22;20360;-94
2022/10/30 02:23:37;;;;;;;28.42;13.88;;;;;;;;;;6283452;22;19999;-92
2022/10/30 02:26:03;;;;;;;32.13;14.23;;;;;;;;;;6283572;22;20090;-93
2022/10/30 02:28:29;;;;;;;29.23;13.77;;;;;;;;;;6282961;22;19999;-93
2022/10/30 02:30:55;;;;;;;26.63;12.95;;;;;;;;;;6282852;22;20420;-91
2022/10/30 02:33:23;;;;;;;30.92;15.18;;;;;;;;;;6282659;22;20003;-93
2022/10/30 02:35:49;;;;;;;29.90;14.15;;;;;;;;;;6283362;22;20004;-92
2022/10/30 02:38:15;;;;;;;26.92;13.30;;;;;;;;;;6283079;22;20031;-93
2022/10/30 02:40:41;;;;;;;31.73;15.27;;;;;;;;;;6283301;22;20007;-93
2022/10/30 02:43:08;;;;;;;26.45;12.70;;;;;;;;;;6283105;22;20011;-93
2022/10/30 02:45:34;;;;;;;34.60;14.27;;;;;;;;;;6283220;22;20437;-92
2022/10/30 02:48:00;;;;;;;29.65;13.40;;;;;;;;;;6283071;22;20008;-92
2022/10/30 02:50:29;;;;;;;30.92;15.05;;;;;;;;;;6282680;22;20007;-93
2022/10/30 02:52:58;;;;;;;33.17;13.55;;;;;;;;;;6282821;22;20003;-93
2022/10/30 02:55:24;;;;;;;31.60;14.80;;;;;;;;;;6282827;22;20029;-92
2022/10/30 02:57:50;;;;;;;28.80;13.35;;;;;;;;;;6283090;22;20014;-92
2022/10/30 03:00:16;;;;;;;30.35;13.50;;;;;;;;;;6282889;22;20023;-93
2022/10/30 03:02:42;;;;;;;29.58;13.15;;;;;;;;;;6282709;22;20057;-91
2022/10/30 03:05:08;;;;;;;27.02;13.32;;;;;;;;;;6282612;22;20015;-93
2022/10/30 03:07:34;;;;;;;25.70;13.27;;;;;;;;;;6282286;22;20397;-92
2022/10/30 03:10:00;;;;;;;34.08;14.35;;;;;;;;;;6282802;22;20069;-92
2022/10/30 03:12:27;;;;;;;31.92;14.70;;;;;;;;;;6283002;22;20443;-92
2022/10/30 03:14:56;;;;;;;32.28;14.00;;;;;;;;;;6283036;22;20003;-93
2022/10/30 03:17:22;;;;;;;31.25;14.25;;;;;;;;;;6282476;22;20008;-93
2022/10/30 03:19:48;;;;;;;28.55;13.88;;;;;;;;;;6283252;22;20417;-93
2022/10/30 03:22:14;;;;;;;27.73;13.80;;;;;;;;;;6282449;22;20018;-94
2022/10/30 03:24:40;;;;;;;28.42;13.60;;;;;;;;;;6282572;22;20010;-93
2022/10/30 03:27:06;;;;;;;30.85;14.45;;;;;;;;;;6282998;22;20058;-93
2022/10/30 03:29:32;;;;;;;26.35;12.70;;;;;;;;;;6283251;22;20007;-90
2022/10/30 03:31:58;;;;;;;26.88;12.23;;;;;;;;;;6282824;22;20306;-92
2022/10/30 03:34:24;;;;;;;26.40;13.35;;;;;;;;;;6282375;22;19999;-94
2022/10/30 03:36:51;;;;;;;23.35;10.75;;;;;;;;;;6283360;22;20003;-91
2022/10/30 03:39:17;;;;;;;27.77;13.63;;;;;;;;;;6282429;22;20416;-91
2022/10/30 03:41:43;;;;;;;21.05;10.75;;;;;;;;;;6282822;22;20004;-92
2022/10/30 03:44:09;;;;;;;26.20;12.05;;;;;;;;;;6282523;22;20118;-91
2022/10/30 03:46:35;;;;;;;29.67;12.55;;;;;;;;;;6282425;22;20015;-93
2022/10/30 03:49:01;;;;;;;24.92;12.27;;;;;;;;;;6282289;22;20038;-91
2022/10/30 03:51:27;;;;;;;25.40;12.13;;;;;;;;;;6282379;22;20010;-93
2022/10/30 03:53:53;;;;;;;26.70;13.13;;;;;;;;;;6282810;22;20052;-92
2022/10/30 03:56:19;;;;;;;23.48;11.68;;;;;;;;;;6282571;22;20004;-92
2022/10/30 03:58:45;;;;;;;23.50;11.55;;;;;;;;;;6282357;22;20415;-91
2022/10/30 04:01:12;;;;;;;24.00;10.88;;;;;;;;;;6282474;22;20003;-92
2022/10/30 04:03:38;;;;;;;22.17;11.52;;;;;;;;;;6281791;22;20007;-94
2022/10/30 04:06:05;;;;;;;24.67;10.10;;;;;;;;;;6282315;22;20440;-91
2022/10/30 04:08:31;;;;;;;24.45;11.32;;;;;;;;;;6283173;22;20110;-92
2022/10/30 04:10:58;;;;;;;21.33;10.43;;;;;;;;;;6282280;22;20019;-93
2022/10/30 04:13:24;;;;;;;20.33;10.88;;;;;;;;;;6282054;22;20004;-90
2022/10/30 04:15:50;;;;;;;19.80;10.50;;;;;;;;;;6282367;22;20022;-93
2022/10/30 04:18:16;;;;;;;19.90;10.70;;;;;;;;;;6282022;22;20003;-90
2022/10/30 04:20:43;;;;;;;35.90;19.17;;;;;;;;;;6281783;22;20321;-92
2022/10/30 04:23:12;;;;;;;46.95;21.50;;;;;;;;;;6282270;22;20086;-93
2022/10/30 04:25:38;;;;;;;26.08;14.05;;;;;;;;;;6282216;22;20094;-94
2022/10/30 04:28:04;;;;;;;24.23;12.48;;;;;;;;;;6282298;22;20003;-93
2022/10/30 04:30:35;;;;;;;19.05;9.57;;;;;;;;;;6282255;22;20011;-90
2022/10/30 04:33:02;;;;;;;21.90;10.85;;;;;;;;;;6283132;22;20086;-91
2022/10/30 04:35:29;;;;;;;19.02;9.90;;;;;;;;;;6281811;22;20372;-92
2022/10/30 04:37:56;;;;;;;20.13;10.05;;;;;;;;;;6281680;22;20095;-91
2022/10/30 04:40:23;;;;;;;19.23;9.40;;;;;;;;;;6282000;22;20050;-93
2022/10/30 04:42:49;;;;;;;18.40;7.72;;;;;;;;;;6282470;22;19999;-92
2022/10/30 04:45:16;;;;;;;19.40;9.18;;;;;;;;;;6284583;22;20007;-92
2022/10/30 04:47:42;;;;;;;17.20;8.98;;;;;;;;;;6285732;22;20439;-92
2022/10/30 04:50:09;;;;;;;19.60;9.18;;;;;;;;;;6285917;22;20443;-93
2022/10/30 04:52:35;;;;;;;14.77;8.02;;;;;;;;;;6285876;22;20003;-92
2022/10/30 04:55:01;;;;;;;17.33;8.40;;;;;;;;;;6285016;22;19999;-92
2022/10/30 04:57:27;;;;;;;14.82;8.57;;;;;;;;;;6285595;22;20008;-93
2022/10/30 04:59:54;;;;;;;14.63;7.72;;;;;;;;;;6285406;22;19999;-93
2022/10/30 05:02:20;;;;;;;14.32;7.55;;;;;;;;;;6285956;22;20436;-93
2022/10/30 05:04:46;;;;;;;15.82;7.60;;;;;;;;;;6284735;22;20086;-93
2022/10/30 05:07:13;;;;;;;15.65;8.27;;;;;;;;;;6286391;22;20026;-93
2022/10/30 05:09:39;;;;;;;16.08;8.15;;;;;;;;;;6285161;22;20015;-92
2022/10/30 05:12:05;;;;;;;15.13;7.55;;;;;;;;;;6285649;22;20046;-93
2022/10/30 05:14:32;;;;;;;16.00;7.68;;;;;;;;;;6285614;22;20014;-93
2022/10/30 05:16:58;;;;;;;17.27;8.50;;;;;;;;;;6285704;22;20382;-94
2022/10/30 05:19:25;;;;;;;15.80;7.82;;;;;;;;;;6285477;22;20022;-93
2022/10/30 05:21:51;;;;;;;16.30;8.40;;;;;;;;;;6311226;22;20010;-93
2022/10/30 05:24:17;;;;;;;17.17;7.82;;;;;;;;;;6285563;22;20049;-94
2022/10/30 05:26:44;;;;;;;13.85;7.63;;;;;;;;;;6285450;22;20021;-92
2022/10/30 05:29:11;;;;;;;16.85;7.70;;;;;;;;;;6285595;22;20010;-92
2022/10/30 05:31:37;;;;;;;14.32;7.38;;;;;;;;;;6285105;22;20007;-90
2022/10/30 05:34:03;;;;;;;13.32;7.25;;;;;;;;;;6285193;22;20003;-91
2022/10/30 05:36:29;;;;;;;16.08;7.72;;;;;;;;;;6284747;22;20007;-93
2022/10/30 05:38:55;;;;;;;15.15;7.72;;;;;;;;;;6285786;22;20010;-93
2022/10/30 05:41:22;;;;;;;14.07;7.70;;;;;;;;;;6285544;22;20057;-92
2022/10/30 05:43:48;;;;;;;13.57;7.47;;;;;;;;;;6285447;22;19999;-92
2022/10/30 05:46:14;;;;;;;18.15;7.53;;;;;;;;;;6285208;22;20039;-93
2022/10/30 05:48:40;;;;;;;14.10;7.30;;;;;;;;;;6285392;22;20053;-91
2022/10/30 05:51:07;;;;;;;18.25;8.10;;;;;;;;;;6285215;22;20084;-93
2022/10/30 05:53:33;;;;;;;14.82;7.82;;;;;;;;;;6285144;22;20088;-92
2022/10/30 05:55:59;;;;;;;15.10;7.45;;;;;;;;;;6284396;22;20030;-91
2022/10/30 05:58:26;;;;;;;14.10;6.70;;;;;;;;;;6285622;22;20003;-95
2022/10/30 06:00:52;;;;;;;17.52;7.75;;;;;;;;;;6283623;22;20004;-93
2022/10/30 06:03:18;;;;;;;12.95;7.35;;;;;;;;;;6283548;22;19999;-92
2022/10/30 06:05:44;;;;;;;13.32;6.78;;;;;;;;;;6282677;22;20015;-93
2022/10/30 06:08:11;;;;;;;11.43;7.30;;;;;;;;;;6283942;22;20026;-94
2022/10/30 06:10:37;;;;;;;23.60;7.75;;;;;;;;;;6283017;22;20432;-94
2022/10/30 06:13:04;;;;;;;16.67;6.78;;;;;;;;;;6283587;22;20078;-95
2022/10/30 06:15:31;;;;;;;11.02;5.97;;;;;;;;;;6284128;22;20007;-95
2022/10/30 06:18:00;;;;;;;12.10;6.38;;;;;;;;;;6284336;22;20011;-95
2022/10/30 06:20:27;;;;;;;13.52;5.95;;;;;;;;;;6289294;22;20014;-94
2022/10/30 06:22:58;;;;;;;13.75;6.38;;;;;;;;;;6287327;22;20010;-94
2022/10/30 06:25:27;;;;;;;12.48;6.55;;;;;;;;;;6286380;22;20011;-95
2022/10/30 06:27:59;;;;;;;12.88;6.93;;;;;;;;;;6315776;22;20013;-95
2022/10/30 06:30:29;;;;;;;11.73;5.97;;;;;;;;;;6259124;22;20506;-93
2022/10/30 06:32:59;;;;;;;11.45;6.13;;;;;;;;;;6316103;22;20063;-96
2022/10/30 06:35:25;;;;;;;12.15;6.72;;;;;;;;;;6287140;22;19991;-95
2022/10/30 06:37:53;;;;;;;12.52;6.40;;;;;;;;;;6284337;22;20435;-96
2022/10/30 06:40:32;;;;;;;10.00;5.63;;;;;;;;;;6283551;22;20007;-95
2022/10/30 06:43:06;;;;;;;14.88;6.43;;;;;;;;;;6258107;22;20031;-95
2022/10/30 06:45:32;;;;;;;;;;;;;;;;;;6286251;22;20068;-92
2022/10/30 06:48:21;;;;;;;12.68;6.00;;;;;;;;;;6285646;22;19922;-92
2022/10/30 06:51:08;;;;;;;14.00;6.68;;;;;;;;;;6287726;22;19999;-96
2022/10/30 06:53:34;;;;;;;11.27;6.28;;;;;;;;;;6286017;22;20027;-96
2022/10/30 06:56:06;;;;;;;12.30;6.35;;;;;;;;;;6285387;22;20086;-96
2022/10/30 06:58:37;;;;;;;15.15;7.32;;;;;;;;;;6290862;22;20010;-95
2022/10/30 07:01:04;;;;;;;13.73;7.07;;;;;;;;;;6289650;22;20007;-95
2022/10/30 07:03:30;;;;;;;16.52;7.13;;;;;;;;;;6284387;22;19999;-95
2022/10/30 07:05:59;;;;;;;13.77;6.70;;;;;;;;;;6290417;22;20015;-96
2022/10/30 07:08:28;;;;;;;14.70;8.15;;;;;;;;;;6288443;22;20043;-96
2022/10/30 07:11:01;;;;;;;12.77;7.13;;;;;;;;;;6295392;22;20007;-96
2022/10/30 07:13:49;;;;;;;13.70;7.03;;;;;;;;;;6286191;22;20510;-96
2022/10/30 07:16:24;;;;;;;15.50;7.40;;;;;;;;;;6292150;22;20484;-96
2022/10/30 07:18:59;;;;;;;15.02;7.07;;;;;;;;;;6283391;22;20004;-96
2022/10/30 07:21:35;;;;;;;14.68;7.63;;;;;;;;;;6289208;22;20015;-96
2022/10/30 07:24:27;;;;;;;12.85;6.35;;;;;;;;;;6288347;22;19999;-96
2022/10/30 07:26:56;;;;;;;13.07;6.82;;;;;;;;;;6308488;22;20011;-96
2022/10/30 07:29:22;;;;;;;11.63;6.55;;;;;;;;;;6284450;22;20003;-95
2022/10/30 07:32:03;;;;;;;11.98;7.05;;;;;;;;;;6286797;22;20007;-96
2022/10/30 07:34:33;;;;;;;12.57;6.88;;;;;;;;;;6290831;22;20029;-95
2022/10/30 07:37:02;;;;;;;14.55;8.43;;;;;;;;;;6293162;22;20006;-96
2022/10/30 07:39:51;;;;;;;9.68;6.00;;;;;;;;;;6297265;22;20007;-96
2022/10/30 07:42:17;;;;;;;12.20;6.32;;;;;;;;;;6286046;22;20078;-96
2022/10/30 07:44:43;;;;;;;9.23;5.63;;;;;;;;;;6284787;22;20118;-92
2022/10/30 07:47:09;;;;;;;11.48;6.68;;;;;;;;;;6282901;22;20006;-94
2022/10/30 07:49:35;;;;;;;11.65;6.72;;;;;;;;;;6283879;22;20063;-94
2022/10/30 07:52:01;;;;;;;13.07;6.80;;;;;;;;;;6282120;22;20037;-93
2022/10/30 07:54:27;;;;;;;9.95;5.65;;;;;;;;;;6282729;22;20022;-93
2022/10/30 07:56:54;;;;;;;12.35;5.88;;;;;;;;;;6283362;22;20015;-91
2022/10/30 07:59:20;;;;;;;11.10;6.10;;;;;;;;;;6282524;22;20045;-91
2022/10/30 08:01:48;;;;;;;11.85;6.30;;;;;;;;;;6282116;22;20006;-92
2022/10/30 08:04:14;;;;;;;10.20;5.90;;;;;;;;;;6281891;22;20035;-93
2022/10/30 08:06:45;;;;;;;11.48;6.15;;;;;;;;;;6282343;22;20064;-96
2022/10/30 08:09:11;;;;;;;9.55;5.75;;;;;;;;;;6282172;22;20355;-93
2022/10/30 08:11:37;;;;;;;10.43;5.53;;;;;;;;;;6281966;22;20007;-95
2022/10/30 08:14:29;;;;;;;12.57;5.97;;;;;;;;;;6283530;22;20009;-92
2022/10/30 08:16:56;;;;;;;11.60;6.53;;;;;;;;;;6282026;22;20441;-93
2022/10/30 08:19:22;;;;;;;11.50;6.60;;;;;;;;;;6281965;22;20003;-92
2022/10/30 08:21:48;;;;;;;9.90;6.13;;;;;;;;;;6283352;22;20052;-93
2022/10/30 08:24:14;;;;;;;10.63;6.40;;;;;;;;;;6282221;22;20007;-91
2022/10/30 08:26:40;;;;;;;9.82;6.28;;;;;;;;;;6282046;22;20436;-93
2022/10/30 08:29:06;;;;;;;12.40;7.05;;;;;;;;;;6281443;22;20003;-92
2022/10/30 08:31:32;;;;;;;10.52;6.50;;;;;;;;;;6283052;22;20026;-93
2022/10/30 08:33:58;;;;;;;11.50;6.90;;;;;;;;;;6282436;22;20076;-92
2022/10/30 08:36:24;;;;;;;14.68;6.75;;;;;;;;;;6282681;22;20484;-94
2022/10/30 08:38:51;;;;;;;11.27;6.00;;;;;;;;;;6282407;22;20004;-91
2022/10/30 08:41:17;;;;;;;10.45;5.93;;;;;;;;;;6286074;22;20045;-96
2022/10/30 08:43:43;;;;;;;11.48;6.57;;;;;;;;;;6283668;22;20003;-92
2022/10/30 08:46:11;;;;;;;9.35;6.00;;;;;;;;;;6283269;22;20486;-94
2022/10/30 08:48:37;;;;;;;11.57;6.82;;;;;;;;;;6283237;22;20003;-90
2022/10/30 08:51:05;;;;;;;11.30;6.90;;;;;;;;;;6287745;22;20004;-95
2022/10/30 08:53:35;;;;;;;10.50;6.93;;;;;;;;;;6316956;22;20000;-95
2022/10/30 08:56:01;;;;;;;13.10;7.63;;;;;;;;;;6283242;22;20024;-95
2022/10/30 08:58:29;;;;;;;12.90;6.95;;;;;;;;;;6282694;22;20033;-95
2022/10/30 09:00:55;;;;;;;12.13;7.15;;;;;;;;;;6282216;22;20050;-93
2022/10/30 09:03:21;;;;;;;13.35;7.70;;;;;;;;;;6282691;22;20000;-94
2022/10/30 09:05:47;;;;;;;14.70;8.05;;;;;;;;;;6283121;22;20359;-94
2022/10/30 09:08:13;;;;;;;14.60;7.15;;;;;;;;;;6282676;22;20038;-94
2022/10/30 09:10:39;;;;;;;12.93;8.15;;;;;;;;;;6282759;22;20003;-93
2022/10/30 09:13:06;;;;;;;13.57;7.70;;;;;;;;;;6282518;22;20011;-95
2022/10/30 09:15:32;;;;;;;14.93;7.82;;;;;;;;;;6283328;22;20004;-93
2022/10/30 09:17:59;;;;;;;11.82;7.35;;;;;;;;;;6282219;22;20000;-96
2022/10/30 09:20:25;;;;;;;12.75;7.43;;;;;;;;;;6283174;22;20104;-93
2022/10/30 09:22:52;;;;;;;13.30;7.65;;;;;;;;;;6285394;22;20090;-93
2022/10/30 09:25:18;;;;;;;15.73;7.38;;;;;;;;;;6284877;22;20068;-92
2022/10/30 09:27:44;;;;;;;12.38;7.65;;;;;;;;;;6291686;22;20025;-93
2022/10/30 09:30:10;;;;;;;11.85;7.07;;;;;;;;;;6286290;22;19999;-96
2022/10/30 09:32:36;;;;;;;11.43;7.63;;;;;;;;;;6286675;22;20045;-95
2022/10/30 09:35:05;;;;;;;11.77;6.85;;;;;;;;;;6287602;22;20056;-93
2022/10/30 09:37:35;;;;;;;10.88;7.30;;;;;;;;;;6284927;22;20003;-93
2022/10/30 09:40:04;;;;;;;15.73;7.47;;;;;;;;;;6286588;22;20086;-95
2022/10/30 09:42:50;;;;;;;12.10;7.10;;;;;;;;;;6285009;22;20003;-93
2022/10/30 09:45:24;;;;;;;12.18;7.72;;;;;;;;;;6284570;22;20094;-94
2022/10/30 09:47:50;;;;;;;15.85;8.15;;;;;;;;;;6286086;22;20033;-95
2022/10/30 09:50:46;;;;;;;10.93;6.53;;;;;;;;;;6284543;22;20010;-94
2022/10/30 09:53:19;;;;;;;10.60;6.63;;;;;;;;;;6252396;22;20007;-93
2022/10/30 09:55:51;;;;;;;10.25;6.63;;;;;;;;;;6284925;22;20016;-94
2022/10/30 09:58:17;;;;;;;12.02;6.50;;;;;;;;;;6290908;22;20090;-95
2022/10/30 10:00:49;;;;;;;12.82;6.80;;;;;;;;;;6289870;22;20030;-94
2022/10/30 10:03:42;;;;;;;9.30;5.55;;;;;;;;;;6291748;22;20007;-93
2022/10/30 10:06:13;;;;;;;11.02;6.70;;;;;;;;;;6293310;22;20046;-92
2022/10/30 10:08:46;;;;;;;11.95;7.25;;;;;;;;;;6310780;22;19999;-93
2022/10/30 10:11:17;;;;;;;12.80;7.20;;;;;;;;;;6262652;22;20011;-96
2022/10/30 10:13:47;;;;;;;11.15;6.90;;;;;;;;;;6284511;22;20003;-93
2022/10/30 10:16:20;;;;;;;9.65;6.47;;;;;;;;;;6286457;22;20010;-92
2022/10/30 10:18:57;;;;;;;10.75;6.65;;;;;;;;;;6285059;22;20011;-96
2022/10/30 10:21:47;;;;;;;12.63;7.00;;;;;;;;;;6291055;22;20019;-94
2022/10/30 10:24:48;;;;;;;10.00;6.07;;;;;;;;;;6282792;22;20029;-94
2022/10/30 10:27:22;;;;;;;10.75;6.30;;;;;;;;;;6285442;22;20325;-91
2022/10/30 10:29:54;;;;;;;11.05;6.53;;;;;;;;;;6284118;22;20050;-94
2022/10/30 10:32:38;;;;;;;10.85;6.28;;;;;;;;;;6283597;22;20501;-93
2022/10/30 10:35:23;;;;;;;9.93;5.97;;;;;;;;;;6284288;22;20010;-93
2022/10/30 10:38:08;;;;;;;11.02;6.15;;;;;;;;;;6283912;22;20023;-94
2022/10/30 10:41:11;;;;;;;10.35;6.47;;;;;;;;;;6283038;22;20003;-94
2022/10/30 10:43:59;;;;;;;11.88;6.72;;;;;;;;;;6132981;23;20056;-93
2022/10/30 10:46:34;;;;;;;10.80;6.50;;;;;;;;;;6275383;22;20041;-94
2022/10/30 10:49:07;;;;;;;11.55;6.43;;;;;;;;;;6284059;22;20005;-93
2022/10/30 10:51:39;;;;;;;10.48;6.72;;;;;;;;;;6284099;22;20007;-94
2022/10/30 10:54:16;;;;;;;12.73;6.93;;;;;;;;;;6283393;22;20065;-94
2022/10/30 10:56:44;;;;;;;10.82;6.88;;;;;;;;;;6283316;22;20023;-94
2022/10/30 10:59:14;;;;;;;9.93;6.38;;;;;;;;;;6284856;22;20078;-95
2022/10/30 11:02:02;;;;;;;21.63;7.20;;;;;;;;;;6286885;22;20086;-96
2022/10/30 11:04:38;;;;;;;13.57;7.43;;;;;;;;;;6288026;22;20010;-95
2022/10/30 11:07:15;;;;;;;11.32;6.95;;;;;;;;;;6284128;22;20424;-96
2022/10/30 11:15:36;;;;;;;18.33;13.20;;;;;;;;;;6311205;22;20096;-94
2022/10/30 11:18:08;;;;;;;12.90;9.52;;;;;;;;;;6282959;22;20359;-91
2022/10/30 11:20:46;;;;;;;10.18;6.63;;;;;;;;;;6282912;22;20080;-94
2022/10/30 11:26:21;;;;;;;13.75;7.50;;;;;;;;;;6262715;22;20479;-94
2022/10/30 11:28:51;;;;;;;12.18;7.28;;;;;;;;;;6308862;22;19999;-94
2022/10/30 11:31:20;;;;;;;12.55;7.85;;;;;;;;;;6308849;22;20384;-91
2022/10/30 11:33:46;;;;;;;21.45;14.70;;;;;;;;;;6309456;22;20008;-93
2022/10/30 11:36:19;;;;;;;12.60;7.90;;;;;;;;;;6308359;22;20069;-93
2022/10/30 11:38:45;;;;;;;13.07;7.88;;;;;;;;;;6309902;22;20005;-92
2022/10/30 11:41:13;;;;;;;12.13;7.15;;;;;;;;;;6310681;22;20018;-92
2022/10/30 11:43:40;;;;;;;14.65;8.43;;;;;;;;;;6315187;22;20435;-93
2022/10/30 11:46:11;;;;;;;14.52;7.65;;;;;;;;;;6313522;22;20018;-94
2022/10/30 11:48:38;;;;;;;14.30;8.02;;;;;;;;;;6292570;22;20002;-95
2022/10/30 11:51:11;;;;;;;16.00;11.40;;;;;;;;;;6315144;22;20011;-93
2022/10/30 11:54:11;;;;;;;12.70;7.80;;;;;;;;;;6317769;22;20317;-96
2022/10/30 11:57:56;;;;;;;17.48;9.32;;;;;;;;;;6326688;22;19982;-96
2022/10/30 12:00:04;;;;;;;12.32;7.45;;;;;;;;;;6215089;23;20001;-93
2022/10/30 12:02:39;;;;;;;13.60;8.00;;;;;;;;;;6190581;23;20004;-93
2022/10/30 12:05:25;;;;;;;12.55;7.38;;;;;;;;;;6307313;22;20009;-93
2022/10/30 12:07:52;;;;;;;14.68;8.00;;;;;;;;;;6313711;22;20007;-93
2022/10/30 12:10:25;;;;;;;12.88;8.15;;;;;;;;;;6313217;22;20005;-93
2022/10/30 12:13:25;;;;;;;13.32;8.13;;;;;;;;;;6313428;22;20031;-94
2022/10/30 12:16:04;;;;;;;12.52;7.55;;;;;;;;;;6313612;22;19998;-91
2022/10/30 12:18:30;;;;;;;14.93;9.20;;;;;;;;;;6313796;22;20033;-91
2022/10/30 12:20:57;;;;;;;14.68;7.90;;;;;;;;;;6313256;22;20002;-93
2022/10/30 12:23:24;;;;;;;15.00;8.98;;;;;;;;;;6341113;22;20006;-93
2022/10/30 12:25:55;;;;;;;14.93;8.65;;;;;;;;;;6313238;22;20379;-92
2022/10/30 12:28:22;;;;;;;13.40;8.50;;;;;;;;;;6313145;22;20064;-90
2022/10/30 12:30:52;;;;;;;20.60;8.98;;;;;;;;;;6313182;22;20064;-93
2022/10/30 12:33:22;;;;;;;14.30;8.57;;;;;;;;;;6316117;22;20022;-95
2022/10/30 12:35:58;;;;;;;14.43;8.80;;;;;;;;;;6314021;22;20053;-93
2022/10/30 12:38:47;;;;;;;14.95;8.60;;;;;;;;;;6341564;22;20045;-95
2022/10/30 12:41:32;;;;;;;17.13;8.65;;;;;;;;;;6314499;22;20128;-94
2022/10/30 12:44:01;;;;;;;15.02;9.43;;;;;;;;;;6318095;22;20006;-93
2022/10/30 12:46:46;;;;;;;16.27;9.20;;;;;;;;;;6314598;22;20128;-92
2022/10/30 12:49:47;;;;;;;;;;;;;;;;;;;;;
2022/10/30 12:52:13;;;;;;;15.15;8.90;;;;;;;;;;6342167;22;20078;-90
2022/10/30 12:54:52;;;;;;;15.68;9.57;;;;;;;;;;6313308;22;20010;-90
2022/10/30 12:57:22;;;;;;;14.85;8.55;;;;;;;;;;6313222;22;20032;-89
2022/10/30 13:00:00;;;;;;;14.40;8.57;;;;;;;;;;6311793;22;20030;-92
2022/10/30 13:02:32;;;;;;;14.88;8.40;;;;;;;;;;6312836;22;20085;-89
2022/10/30 13:05:04;;;;;;;14.52;9.23;;;;;;;;;;6313092;22;19999;-90
2022/10/30 13:07:43;;;;;;;15.25;8.50;;;;;;;;;;6315177;22;20006;-89
2022/10/30 13:10:44;;;;;;;13.15;7.95;;;;;;;;;;6314758;22;20331;-89
2022/10/30 13:13:19;;;;;;;14.07;8.70;;;;;;;;;;6233904;22;20006;-90
2022/10/30 13:15:48;;;;;;;14.82;8.85;;;;;;;;;;6315012;22;20003;-92
2022/10/30 13:18:18;;;;;;;13.52;9.00;;;;;;;;;;6315102;22;20428;-91
2022/10/30 13:20:54;;;;;;;16.35;9.20;;;;;;;;;;6315542;22;19999;-91
2022/10/30 13:23:27;;;;;;;17.80;9.88;;;;;;;;;;6314960;22;20009;-90
2022/10/30 13:26:03;;;;;;;16.08;9.32;;;;;;;;;;6314618;22;20019;-88
2022/10/30 13:28:43;;;;;;;15.02;8.65;;;;;;;;;;6315017;22;20067;-91
2022/10/30 13:31:21;;;;;;;16.77;9.65;;;;;;;;;;6315288;22;20003;-90
2022/10/30 13:34:09;;;;;;;15.85;9.52;;;;;;;;;;6314946;22;20051;-90
2022/10/30 13:36:45;;;;;;;16.05;9.40;;;;;;;;;;6315095;22;20047;-91
2022/10/30 13:39:14;;;;;;;16.73;9.43;;;;;;;;;;6342660;22;19999;-92
2022/10/30 13:42:00;;;;;;;18.13;10.20;;;;;;;;;;6314586;22;20083;-94
2022/10/30 13:44:42;;;;;;;19.80;10.65;;;;;;;;;;6344286;22;20009;-91
2022/10/30 13:47:17;;;;;;;18.17;9.95;;;;;;;;;;6316451;22;20021;-92
2022/10/30 13:50:11;;;;;;;16.85;9.05;;;;;;;;;;6316599;22;20002;-91
2022/10/30 13:52:39;;;;;;;20.65;9.75;;;;;;;;;;6315605;22;20027;-91
2022/10/30 13:55:28;;;;;;;16.02;9.15;;;;;;;;;;6314574;22;20033;-90
2022/10/30 13:58:00;;;;;;;16.05;9.20;;;;;;;;;;6316250;22;20029;-90
2022/10/30 14:00:35;;;;;;;19.02;10.05;;;;;;;;;;6314222;22;20033;-92
2022/10/30 14:03:11;;;;;;;15.35;9.15;;;;;;;;;;6315262;22;20325;-93
2022/10/30 14:05:43;;;;;;;20.00;9.18;;;;;;;;;;6314476;22;20014;-91
2022/10/30 14:08:09;;;;;;;17.95;8.82;;;;;;;;;;6314840;22;20052;-91
2022/10/30 14:10:41;;;;;;;15.35;8.50;;;;;;;;;;6314255;22;20013;-90
2022/10/30 14:13:14;;;;;;;14.85;7.85;;;;;;;;;;6314681;22;20007;-89
2022/10/30 14:15:42;;;;;;;13.43;8.68;;;;;;;;;;6314704;22;20396;-89
2022/10/30 14:18:11;;;;;;;15.15;8.05;;;;;;;;;;6313887;22;20003;-90
2022/10/30 14:20:38;;;;;;;16.02;8.80;;;;;;;;;;6313967;22;19998;-90
2022/10/30 14:23:15;;;;;;;14.73;8.65;;;;;;;;;;6314062;22;20009;-90
2022/10/30 14:25:41;;;;;;;16.48;8.90;;;;;;;;;;6315513;22;20111;-90
2022/10/30 14:28:20;;;;;;;15.20;7.60;;;;;;;;;;6313754;22;20432;-91
2022/10/30 14:30:46;;;;;;;16.33;9.73;;;;;;;;;;6314447;22;20032;-90
2022/10/30 14:33:31;;;;;;;14.45;8.05;;;;;;;;;;6314236;22;20007;-89
2022/10/30 14:36:13;;;;;;;21.23;9.95;;;;;;;;;;6314308;22;20010;-89
2022/10/30 14:38:39;;;;;;;17.17;10.02;;;;;;;;;;6314295;22;20081;-92
2022/10/30 14:41:11;;;;;;;19.73;9.15;;;;;;;;;;6313824;22;19999;-91
2022/10/30 14:43:47;;;;;;;16.20;9.25;;;;;;;;;;6314206;22;20090;-90
2022/10/30 14:46:26;;;;;;;19.85;9.65;;;;;;;;;;6313820;22;20420;-94
2022/10/30 14:49:01;;;;;;;20.27;10.07;;;;;;;;;;6314444;22;20057;-90
2022/10/30 14:51:30;;;;;;;24.17;9.43;;;;;;;;;;6314776;22;20007;-91
2022/10/30 14:54:20;;;;;;;17.65;8.93;;;;;;;;;;6317552;22;20396;-93
2022/10/30 14:56:46;;;;;;;20.77;9.77;;;;;;;;;;6295625;22;20010;-94
2022/10/30 14:59:13;;;;;;;19.40;8.77;;;;;;;;;;6313445;22;19999;-92